createdAt,value
2024-01-27T00:01:44.629Z,102770.06
2024-01-27T00:04:12.657Z,102766.63
2024-01-27T00:06:40.735Z,102777.22
2024-01-27T00:09:08.833Z,102781.59
2024-01-27T00:11:36.965Z,102781.28
2024-01-27T00:14:05.281Z,102779.31
2024-01-27T00:16:33.312Z,102784.44
2024-01-27T00:19:02.953Z,102770.88
2024-01-27T00:21:31.129Z,102792.31
2024-01-27T00:24:02.255Z,102794.81
2024-01-27T00:26:30.465Z,102791.19
2024-01-27T00:28:58.504Z,102778.09
2024-01-27T00:31:26.631Z,102780.91
2024-01-27T00:33:54.784Z,102792.47
2024-01-27T00:36:24.411Z,102792.84
2024-01-27T00:38:52.523Z,102802.63
2024-01-27T00:41:20.863Z,102796.38
2024-01-27T00:43:48.950Z,102804.00
2024-01-27T00:46:17.008Z,102791.38
2024-01-27T00:48:45.220Z,102800.03
2024-01-27T00:51:13.617Z,102803.56
2024-01-27T00:53:43.449Z,102804.28
2024-01-27T00:56:11.500Z,102800.03
2024-01-27T00:58:39.519Z,102809.69
2024-01-27T01:01:07.662Z,102806.53
2024-01-27T01:03:35.841Z,102809.03
2024-01-27T01:06:04.402Z,102813.41
2024-01-27T01:08:33.952Z,102813.59
2024-01-27T01:11:03.504Z,102814.53
2024-01-27T01:13:31.626Z,102812.25
2024-01-27T01:15:59.675Z,102808.09
2024-01-27T01:18:27.824Z,102805.69
2024-01-27T01:20:56.006Z,102816.06
2024-01-27T01:23:24.051Z,102819.50
2024-01-27T01:25:52.079Z,102819.50
2024-01-27T01:28:21.586Z,102813.56
2024-01-27T01:30:51.098Z,102805.97
2024-01-27T01:33:19.523Z,102807.63
2024-01-27T01:35:47.939Z,102809.59
2024-01-27T01:38:16.048Z,102819.16
2024-01-27T01:40:44.108Z,102823.59
2024-01-27T01:43:13.364Z,102827.97
2024-01-27T01:45:42.812Z,102826.31
2024-01-27T01:48:11.274Z,102830.56
2024-01-27T01:50:39.519Z,102822.78
2024-01-27T01:53:08.948Z,102832.34
2024-01-27T01:55:37.197Z,102832.44
2024-01-27T01:58:05.689Z,102831.69
2024-01-27T02:00:34.022Z,102837.81
2024-01-27T02:03:03.649Z,102838.00
2024-01-27T02:05:31.779Z,102835.50
2024-01-27T02:08:01.299Z,102841.72
2024-01-27T02:10:31.487Z,102852.00
2024-01-27T02:12:59.593Z,102855.66
2024-01-27T02:15:27.853Z,102865.22
2024-01-27T02:17:56.095Z,102859.38
2024-01-27T02:20:25.611Z,102861.41
2024-01-27T02:22:53.665Z,102866.16
2024-01-27T02:25:23.085Z,102866.34
2024-01-27T02:27:51.142Z,102874.97
2024-01-27T02:30:19.223Z,102878.41
2024-01-27T02:32:47.399Z,102865.88
2024-01-27T02:35:15.693Z,102869.31
2024-01-27T02:37:44.007Z,102870.41
2024-01-27T02:40:13.066Z,102870.59
2024-01-27T02:42:43.506Z,102880.72
2024-01-27T02:45:12.371Z,102880.91
2024-01-27T02:47:40.464Z,102884.53
2024-01-27T02:50:09.924Z,102891.84
2024-01-27T02:52:38.054Z,102900.94
2024-01-27T02:55:06.576Z,102894.81
2024-01-27T02:57:34.691Z,102890.91
2024-01-27T03:00:04.580Z,102905.06
2024-01-27T03:02:32.764Z,102901.56
2024-01-27T03:05:00.836Z,102909.59
2024-01-27T03:07:28.906Z,102906.25
2024-01-27T03:09:56.979Z,102911.09
2024-01-27T03:12:25.264Z,102915.34
2024-01-27T03:14:53.352Z,102913.88
2024-01-27T03:17:22.786Z,102917.84
2024-01-27T03:19:50.918Z,102912.28
2024-01-27T03:22:19.027Z,102921.28
2024-01-27T03:24:47.071Z,102925.81
2024-01-27T03:27:15.142Z,102928.31
2024-01-27T03:29:43.183Z,102925.06
2024-01-27T03:32:11.267Z,102911.44
2024-01-27T03:34:45.680Z,102916.81
2024-01-27T03:37:13.885Z,102915.88
2024-01-27T03:39:43.727Z,102909.03
2024-01-27T03:42:11.817Z,102916.88
2024-01-27T03:44:39.881Z,102927.34
2024-01-27T03:47:07.982Z,102929.84
2024-01-27T03:49:36.250Z,102933.19
2024-01-27T03:52:06.795Z,102935.22
2024-01-27T03:54:34.994Z,102935.38
2024-01-27T03:57:03.066Z,102937.25
2024-01-27T03:59:31.115Z,102945.78
2024-01-27T04:01:59.332Z,102939.66
2024-01-27T04:04:27.510Z,102947.25
2024-01-27T04:06:55.729Z,102938.81
2024-01-27T04:09:25.430Z,102943.00
2024-01-27T04:11:53.971Z,102942.75
2024-01-27T04:14:22.054Z,102952.13
2024-01-27T04:16:50.060Z,102954.72
2024-01-27T04:19:18.218Z,102962.59
2024-01-27T04:21:46.347Z,102955.38
2024-01-27T04:24:14.471Z,102964.19
2024-01-27T04:26:44.002Z,102968.81
2024-01-27T04:29:16.216Z,102972.25
2024-01-27T04:31:44.414Z,102974.94
2024-01-27T04:34:12.636Z,102978.59
2024-01-27T04:36:41.127Z,102989.31
2024-01-27T04:39:09.220Z,102988.31
2024-01-27T04:41:37.337Z,102983.63
2024-01-27T04:44:06.852Z,102981.88
2024-01-27T04:46:35.071Z,102982.28
2024-01-27T04:49:03.187Z,102985.72
2024-01-27T04:51:31.423Z,102976.69
2024-01-27T04:53:59.590Z,102979.38
2024-01-27T04:56:27.643Z,102992.75
2024-01-27T04:58:55.726Z,102984.88
2024-01-27T05:01:25.162Z,102991.97
2024-01-27T05:03:53.323Z,102990.16
2024-01-27T05:06:21.464Z,102985.72
2024-01-27T05:08:49.584Z,102988.47
2024-01-27T05:11:18.726Z,102994.31
2024-01-27T05:13:46.799Z,102991.22
2024-01-27T05:16:14.831Z,102995.94
2024-01-27T05:18:44.405Z,103002.13
2024-01-27T05:21:12.736Z,103006.13
2024-01-27T05:23:40.837Z,103005.47
2024-01-27T05:26:08.936Z,102999.00
2024-01-27T05:28:36.969Z,103009.13
2024-01-27T05:31:05.332Z,102993.91
2024-01-27T05:33:33.507Z,103003.53
2024-01-27T05:36:03.029Z,102997.59
2024-01-27T05:38:32.013Z,103005.91
2024-01-27T05:41:00.637Z,103003.44
2024-01-27T05:43:29.031Z,103007.28
2024-01-27T05:45:57.542Z,103010.63
2024-01-27T05:48:25.691Z,103007.44
2024-01-27T05:51:01.066Z,103009.56
2024-01-27T05:53:30.621Z,103013.69
2024-01-27T05:55:59.005Z,103016.94
2024-01-27T05:58:27.215Z,103018.34
2024-01-27T06:00:55.379Z,103017.63
2024-01-27T06:03:23.574Z,103026.31
2024-01-27T06:05:51.791Z,103032.59
2024-01-27T06:08:21.061Z,103034.00
2024-01-27T06:10:50.586Z,103044.53
2024-01-27T06:13:18.658Z,103049.25
2024-01-27T06:15:46.688Z,103051.00
2024-01-27T06:18:14.799Z,103047.13
2024-01-27T06:20:43.504Z,103059.09
2024-01-27T06:23:11.613Z,103056.81
2024-01-27T06:25:39.629Z,103057.41
2024-01-27T06:28:09.129Z,103060.16
2024-01-27T06:30:37.200Z,103057.72
2024-01-27T06:33:05.779Z,103060.84
2024-01-27T06:35:33.840Z,103070.78
2024-01-27T06:38:01.870Z,103079.13
2024-01-27T06:40:29.949Z,103076.06
2024-01-27T06:42:59.079Z,103085.94
2024-01-27T06:45:29.424Z,103089.41
2024-01-27T06:47:57.717Z,103087.53
2024-01-27T06:50:25.797Z,103077.53
2024-01-27T06:52:53.898Z,103081.03
2024-01-27T06:55:21.913Z,103086.22
2024-01-27T06:57:49.948Z,103086.16
2024-01-27T07:00:19.238Z,103095.13
2024-01-27T07:02:48.873Z,103087.72
2024-01-27T07:05:17.121Z,103100.00
2024-01-27T07:07:45.164Z,103100.38
2024-01-27T07:10:13.299Z,103104.88
2024-01-27T07:12:41.367Z,103104.72
2024-01-27T07:15:10.042Z,103103.34
2024-01-27T07:17:38.131Z,103113.03
2024-01-27T07:20:09.311Z,103126.34
2024-01-27T07:22:37.361Z,103120.72
2024-01-27T07:25:06.196Z,103130.44
2024-01-27T07:27:34.205Z,103129.97
2024-01-27T07:30:02.746Z,103137.09
2024-01-27T07:32:30.813Z,103127.09
2024-01-27T07:34:58.972Z,103138.44
2024-01-27T07:37:28.418Z,103139.56
2024-01-27T07:39:56.477Z,103134.22
2024-01-27T07:42:24.544Z,103131.16
2024-01-27T07:44:52.631Z,103129.59
2024-01-27T07:47:20.713Z,103138.00
2024-01-27T07:49:50.214Z,103141.16
2024-01-27T07:52:18.502Z,103142.63
2024-01-27T07:54:48.000Z,103151.22
2024-01-27T07:57:16.154Z,103152.63
2024-01-27T07:59:44.276Z,103155.94
2024-01-27T08:02:12.328Z,103161.28
2024-01-27T08:04:40.541Z,103164.25
2024-01-27T08:07:11.235Z,103161.66
2024-01-27T08:09:40.410Z,103164.09
2024-01-27T08:12:10.643Z,103167.69
2024-01-27T08:14:39.259Z,103175.44
2024-01-27T08:17:07.318Z,103176.34
2024-01-27T08:19:35.752Z,103184.59
2024-01-27T08:22:04.460Z,103189.41
2024-01-27T08:24:32.504Z,103191.22
2024-01-27T08:27:01.849Z,103184.22
2024-01-27T08:29:31.310Z,103184.16
2024-01-27T08:31:59.425Z,103188.28
2024-01-27T08:34:27.641Z,103184.78
2024-01-27T08:36:59.668Z,103185.38
2024-01-27T08:39:27.816Z,103193.91
2024-01-27T08:41:55.896Z,103194.38
2024-01-27T08:44:24.426Z,103197.72
2024-01-27T08:46:53.987Z,103201.16
2024-01-27T08:49:22.234Z,103199.25
2024-01-27T08:51:50.351Z,103192.19
2024-01-27T08:54:18.425Z,103202.38
2024-01-27T08:56:46.472Z,103194.38
2024-01-27T08:59:14.509Z,103197.81
2024-01-27T09:01:42.599Z,103191.63
2024-01-27T09:04:12.038Z,103197.41
2024-01-27T09:06:40.126Z,103203.97
2024-01-27T09:09:09.144Z,103204.50
2024-01-27T09:11:37.717Z,103202.44
2024-01-27T09:14:08.276Z,103196.25
2024-01-27T09:16:36.618Z,103201.78
2024-01-27T09:19:04.799Z,103208.50
2024-01-27T09:21:34.514Z,103203.75
2024-01-27T09:24:03.720Z,103201.53
2024-01-27T09:26:32.033Z,103216.25
2024-01-27T09:29:00.102Z,103213.00
2024-01-27T09:31:28.165Z,103216.19
2024-01-27T09:33:57.335Z,103217.13
2024-01-27T09:36:25.625Z,103211.69
2024-01-27T09:38:55.757Z,103213.38
2024-01-27T09:41:23.960Z,103207.84
2024-01-27T09:43:52.006Z,103212.81
2024-01-27T09:46:20.301Z,103214.31
2024-01-27T09:48:48.465Z,103223.50
2024-01-27T09:51:17.421Z,103219.25
2024-01-27T09:53:45.594Z,103222.75
2024-01-27T09:56:19.221Z,103226.13
2024-01-27T09:58:47.861Z,103212.66
2024-01-27T10:01:19.160Z,103216.72
2024-01-27T10:03:49.162Z,103217.91
2024-01-27T10:06:17.430Z,103218.66
2024-01-27T10:08:54.736Z,103210.69
2024-01-27T10:11:25.872Z,103228.69
2024-01-27T10:13:59.673Z,103225.69
2024-01-27T10:16:28.889Z,103228.56
2024-01-27T10:19:03.520Z,103221.44
2024-01-27T10:21:32.035Z,103208.94
2024-01-27T10:24:00.194Z,103210.44
2024-01-27T10:26:33.262Z,103215.66
2024-01-27T10:29:01.340Z,103210.84
2024-01-27T10:31:30.061Z,103217.72
2024-01-27T10:33:59.022Z,103207.06
2024-01-27T10:36:28.457Z,103213.81
2024-01-27T10:38:56.547Z,103220.91
2024-01-27T10:41:27.530Z,103218.41
2024-01-27T10:43:58.942Z,103227.63
2024-01-27T10:46:28.067Z,103217.88
2024-01-27T10:48:56.273Z,103222.25
2024-01-27T10:51:31.094Z,103226.00
2024-01-27T10:54:04.690Z,103226.34
2024-01-27T10:56:34.011Z,103221.34
2024-01-27T10:59:04.237Z,103233.03
2024-01-27T11:01:34.082Z,103230.34
2024-01-27T11:04:04.442Z,103229.53
2024-01-27T11:06:33.962Z,103237.16
2024-01-27T11:09:02.378Z,103237.81
2024-01-27T11:11:30.474Z,103238.94
2024-01-27T11:13:58.544Z,103240.13
2024-01-27T11:16:29.749Z,103237.16
2024-01-27T11:18:58.161Z,103228.88
2024-01-27T11:21:26.305Z,103237.06
2024-01-27T11:23:54.445Z,103236.59
2024-01-27T11:26:24.676Z,103239.59
2024-01-27T11:28:54.039Z,103248.09
2024-01-27T11:31:22.444Z,103250.63
2024-01-27T11:33:54.579Z,103259.38
2024-01-27T11:36:25.023Z,103258.72
2024-01-27T11:38:54.523Z,103252.03
2024-01-27T11:41:26.969Z,103253.47
2024-01-27T11:43:55.541Z,103258.44
2024-01-27T11:46:23.602Z,103261.78
2024-01-27T11:48:54.021Z,103256.50
2024-01-27T11:51:24.903Z,103261.88
2024-01-27T11:53:53.728Z,103269.88
2024-01-27T11:56:22.538Z,103270.34
2024-01-27T11:58:51.606Z,103276.25
2024-01-27T12:01:20.165Z,103289.84
2024-01-27T12:03:49.974Z,103286.50
2024-01-27T12:06:19.944Z,103303.88
2024-01-27T12:08:50.134Z,103295.91
2024-01-27T12:11:22.416Z,103290.88
2024-01-27T12:13:53.517Z,103289.00
2024-01-27T12:16:23.832Z,103278.69
2024-01-27T12:18:56.071Z,103289.84
2024-01-27T12:21:26.283Z,103283.53
2024-01-27T12:23:56.288Z,103272.06
2024-01-27T12:26:25.457Z,103264.44
2024-01-27T12:28:54.038Z,103271.53
2024-01-27T12:31:22.203Z,103279.97
2024-01-27T12:33:54.651Z,103281.56
2024-01-27T12:36:23.092Z,103272.16
2024-01-27T12:38:59.824Z,103268.97
2024-01-27T12:41:28.208Z,103274.09
2024-01-27T12:43:56.679Z,103270.00
2024-01-27T12:46:24.962Z,103262.19
2024-01-27T12:48:54.346Z,103264.94
2024-01-27T12:51:23.171Z,103264.75
2024-01-27T12:53:51.262Z,103262.16
2024-01-27T12:56:20.973Z,103257.22
2024-01-27T12:58:49.155Z,103253.06
2024-01-27T13:01:17.396Z,103251.00
2024-01-27T13:03:46.201Z,103246.25
2024-01-27T13:06:15.277Z,103244.47
2024-01-27T13:08:43.743Z,103251.66
2024-01-27T13:11:14.065Z,103250.41
2024-01-27T13:13:45.562Z,103257.41
2024-01-27T13:16:14.809Z,103265.31
2024-01-27T13:18:43.143Z,103268.56
2024-01-27T13:21:11.357Z,103266.28
2024-01-27T13:23:39.438Z,103270.75
2024-01-27T13:26:17.559Z,103275.44
2024-01-27T13:28:50.178Z,103275.16
2024-01-27T13:31:19.418Z,103271.06
2024-01-27T13:33:48.698Z,103279.91
2024-01-27T13:36:17.623Z,103267.00
2024-01-27T13:38:46.054Z,103271.47
2024-01-27T13:41:14.508Z,103269.94
2024-01-27T13:43:42.627Z,103259.53
2024-01-27T13:46:12.208Z,103260.47
2024-01-27T13:48:40.568Z,103270.22
2024-01-27T13:51:08.912Z,103276.69
2024-01-27T13:53:46.271Z,103274.94
2024-01-27T13:56:15.995Z,103278.22
2024-01-27T13:58:44.730Z,103269.66
2024-01-27T14:01:14.272Z,103277.47
2024-01-27T14:03:42.567Z,103265.28
2024-01-27T14:06:14.256Z,103262.69
2024-01-27T14:08:43.261Z,103265.28
2024-01-27T14:11:11.833Z,103262.47
2024-01-27T14:13:39.907Z,103272.31
2024-01-27T14:16:08.562Z,103266.13
2024-01-27T14:18:38.121Z,103275.72
2024-01-27T14:21:06.602Z,103266.84
2024-01-27T14:23:34.648Z,103263.41
2024-01-27T14:26:02.820Z,103266.03
2024-01-27T14:28:30.974Z,103260.72
2024-01-27T14:30:59.032Z,103255.84
2024-01-27T14:33:27.143Z,103254.50
2024-01-27T14:35:56.724Z,103250.13
2024-01-27T14:38:25.128Z,103260.31
2024-01-27T14:40:53.228Z,103262.00
2024-01-27T14:43:21.299Z,103257.84
2024-01-27T14:45:49.823Z,103259.91
2024-01-27T14:48:20.669Z,103262.63
2024-01-27T14:50:53.874Z,103268.84
2024-01-27T14:53:23.400Z,103274.53
2024-01-27T14:55:51.776Z,103273.91
2024-01-27T14:58:19.821Z,103283.47
2024-01-27T15:00:53.471Z,103280.13
2024-01-27T15:03:23.053Z,103265.53
2024-01-27T15:05:51.256Z,103273.75
2024-01-27T15:08:19.575Z,103269.75
2024-01-27T15:10:49.313Z,103270.78
2024-01-27T15:13:18.147Z,103271.16
2024-01-27T15:15:46.338Z,103273.84
2024-01-27T15:18:14.922Z,103273.28
2024-01-27T15:20:43.034Z,103282.50
2024-01-27T15:23:11.050Z,103277.50
2024-01-27T15:25:39.645Z,103279.72
2024-01-27T15:28:09.491Z,103281.59
2024-01-27T15:30:38.022Z,103273.78
2024-01-27T15:33:06.800Z,103276.19
2024-01-27T15:35:38.371Z,103280.72
2024-01-27T15:38:07.317Z,103285.56
2024-01-27T15:40:35.904Z,103279.31
2024-01-27T15:43:04.424Z,103278.69
2024-01-27T15:45:34.030Z,103273.00
2024-01-27T15:48:02.574Z,103281.00
2024-01-27T15:50:33.270Z,103274.22
2024-01-27T15:53:03.811Z,103286.06
2024-01-27T15:55:34.308Z,103284.94
2024-01-27T15:58:02.806Z,103297.38
2024-01-27T16:00:31.218Z,103298.56
2024-01-27T16:03:00.796Z,103298.56
2024-01-27T16:05:28.863Z,103310.41
2024-01-27T16:07:56.894Z,103304.38
2024-01-27T16:10:24.912Z,103304.53
2024-01-27T16:12:52.966Z,103311.66
2024-01-27T16:15:21.036Z,103311.66
2024-01-27T16:17:49.165Z,103306.56
2024-01-27T16:20:18.738Z,103310.91
2024-01-27T16:22:46.741Z,103305.06
2024-01-27T16:25:15.150Z,103311.28
2024-01-27T16:27:42.282Z,103308.09
2024-01-27T16:30:11.189Z,103304.56
2024-01-27T16:32:39.414Z,103315.91
2024-01-27T16:35:09.438Z,103316.16
2024-01-27T16:37:39.022Z,103308.53
2024-01-27T16:40:08.507Z,103306.19
2024-01-27T16:42:38.431Z,103309.69
2024-01-27T16:45:08.528Z,103314.22
2024-01-27T16:47:36.782Z,103314.66
2024-01-27T16:50:05.631Z,103319.34
2024-01-27T16:52:33.720Z,103322.78
2024-01-27T16:55:03.181Z,103327.31
2024-01-27T16:57:32.627Z,103327.31
2024-01-27T17:00:01.001Z,103331.91
2024-01-27T17:02:29.077Z,103332.06
2024-01-27T17:05:03.694Z,103344.38
2024-01-27T17:07:33.608Z,103343.78
2024-01-27T17:10:05.910Z,103338.75
2024-01-27T17:12:34.522Z,103343.28
2024-01-27T17:15:02.744Z,103338.09
2024-01-27T17:17:30.910Z,103346.88
2024-01-27T17:19:59.427Z,103344.44
2024-01-27T17:22:27.477Z,103336.91
2024-01-27T17:24:59.578Z,103342.16
2024-01-27T17:27:29.081Z,103343.16
2024-01-27T17:29:57.820Z,103348.50
2024-01-27T17:32:26.191Z,103357.13
2024-01-27T17:34:54.507Z,103355.63
2024-01-27T17:37:22.677Z,103350.50
2024-01-27T17:39:51.550Z,103354.16
2024-01-27T17:42:19.739Z,103351.72
2024-01-27T17:44:49.566Z,103361.13
2024-01-27T17:47:17.614Z,103356.91
2024-01-27T17:49:45.838Z,103352.75
2024-01-27T17:52:14.223Z,103353.91
2024-01-27T17:54:42.302Z,103358.34
2024-01-27T17:57:10.376Z,103364.28
2024-01-27T17:59:40.275Z,103359.25
2024-01-27T18:02:09.767Z,103360.09
2024-01-27T18:04:38.019Z,103357.50
2024-01-27T18:07:06.457Z,103361.09
2024-01-27T18:09:34.706Z,103370.53
2024-01-27T18:12:04.431Z,103368.94
2024-01-27T18:14:32.537Z,103375.13
2024-01-27T18:17:00.556Z,103372.69
2024-01-27T18:19:30.059Z,103366.72
2024-01-27T18:22:04.144Z,103371.75
2024-01-27T18:24:32.357Z,103371.06
2024-01-27T18:27:01.271Z,103376.34
2024-01-27T18:29:30.553Z,103374.66
2024-01-27T18:31:59.852Z,103373.97
2024-01-27T18:34:29.542Z,103369.78
2024-01-27T18:36:57.701Z,103365.50
2024-01-27T18:39:25.810Z,103357.72
2024-01-27T18:41:53.847Z,103366.44
2024-01-27T18:44:21.937Z,103363.84
2024-01-27T18:46:49.978Z,103374.13
2024-01-27T18:49:19.040Z,103374.97
2024-01-27T18:51:50.291Z,103377.72
2024-01-27T18:54:20.154Z,103362.41
2024-01-27T18:56:48.300Z,103373.84
2024-01-27T18:59:17.865Z,103357.50
2024-01-27T19:01:45.958Z,103361.03
2024-01-27T19:04:14.081Z,103375.59
2024-01-27T19:06:43.515Z,103376.44
2024-01-27T19:09:13.277Z,103367.97
2024-01-27T19:11:43.572Z,103369.63
2024-01-27T19:14:11.924Z,103368.88
2024-01-27T19:16:41.640Z,103362.09
2024-01-27T19:19:10.258Z,103370.84
2024-01-27T19:21:38.555Z,103377.94
2024-01-27T19:24:07.217Z,103377.25
2024-01-27T19:26:37.544Z,103381.59
2024-01-27T19:29:05.775Z,103386.91
2024-01-27T19:31:35.264Z,103387.09
2024-01-27T19:34:03.450Z,103398.31
2024-01-27T19:36:31.686Z,103397.59
2024-01-27T19:38:59.829Z,103395.16
2024-01-27T19:41:27.977Z,103392.00
2024-01-27T19:43:57.506Z,103399.03
2024-01-27T19:46:25.577Z,103395.59
2024-01-27T19:48:53.789Z,103409.44
2024-01-27T19:51:22.260Z,103406.31
2024-01-27T19:53:50.413Z,103401.25
2024-01-27T19:56:18.581Z,103409.88
2024-01-27T19:58:46.656Z,103404.69
2024-01-27T20:01:18.839Z,103413.53
2024-01-27T20:03:49.606Z,103410.34
2024-01-27T20:06:18.024Z,103415.66
2024-01-27T20:08:46.121Z,103406.06
2024-01-27T20:11:14.164Z,103402.50
2024-01-27T20:13:42.190Z,103414.75
2024-01-27T20:16:10.393Z,103412.28
2024-01-27T20:18:39.893Z,103406.28
2024-01-27T20:21:08.026Z,103404.78
2024-01-27T20:23:36.082Z,103405.78
2024-01-27T20:26:04.174Z,103402.41
2024-01-27T20:28:32.199Z,103409.41
2024-01-27T20:31:01.010Z,103416.34
2024-01-27T20:33:37.009Z,103414.03
2024-01-27T20:36:11.139Z,103412.34
2024-01-27T20:38:40.369Z,103420.19
2024-01-27T20:41:08.444Z,103413.41
2024-01-27T20:43:36.527Z,103422.00
2024-01-27T20:46:07.237Z,103422.16
2024-01-27T20:48:35.629Z,103426.50
2024-01-27T20:51:03.915Z,103426.56
2024-01-27T20:53:34.174Z,103430.97
2024-01-27T20:56:02.293Z,103426.78
2024-01-27T20:58:30.420Z,103415.72
2024-01-27T21:00:58.519Z,103421.72
2024-01-27T21:03:26.638Z,103424.31
2024-01-27T21:05:54.682Z,103427.16
2024-01-27T21:08:22.760Z,103434.88
2024-01-27T21:10:52.179Z,103430.47
2024-01-27T21:13:20.212Z,103428.00
2024-01-27T21:15:48.389Z,103420.94
2024-01-27T21:18:17.100Z,103423.59
2024-01-27T21:20:45.227Z,103419.47
2024-01-27T21:23:13.254Z,103422.13
2024-01-27T21:25:41.305Z,103418.75
2024-01-27T21:28:10.717Z,103416.16
2024-01-27T21:30:38.797Z,103412.59
2024-01-27T21:33:09.035Z,103419.72
2024-01-27T21:35:37.562Z,103422.31
2024-01-27T21:38:05.891Z,103421.41
2024-01-27T21:40:40.484Z,103420.94
2024-01-27T21:43:11.890Z,103429.66
2024-01-27T21:45:40.941Z,103421.13
2024-01-27T21:48:09.457Z,103424.81
2024-01-27T21:50:38.084Z,103418.75
2024-01-27T21:53:06.734Z,103417.75
2024-01-27T21:55:35.945Z,103411.16
2024-01-27T21:58:04.850Z,103412.00
2024-01-27T22:00:34.508Z,103412.28
2024-01-27T22:03:02.918Z,103403.72
2024-01-27T22:05:31.090Z,103409.75
2024-01-27T22:08:00.095Z,103408.00
2024-01-27T22:10:28.956Z,103408.84
2024-01-27T22:12:57.085Z,103402.13
2024-01-27T22:15:25.182Z,103399.66
2024-01-27T22:17:54.716Z,103397.13
2024-01-27T22:20:22.769Z,103400.50
2024-01-27T22:22:50.830Z,103398.25
2024-01-27T22:25:18.912Z,103405.25
2024-01-27T22:27:46.987Z,103398.88
2024-01-27T22:30:16.252Z,103404.06
2024-01-27T22:32:44.595Z,103396.44
2024-01-27T22:35:14.092Z,103397.47
2024-01-27T22:37:42.103Z,103395.03
2024-01-27T22:40:11.421Z,103396.75
2024-01-27T22:42:39.560Z,103394.50
2024-01-27T22:45:09.215Z,103399.47
2024-01-27T22:47:37.417Z,103410.84
2024-01-27T22:50:06.081Z,103409.03
2024-01-27T22:52:35.789Z,103405.09
2024-01-27T22:55:03.882Z,103403.41
2024-01-27T22:57:32.837Z,103401.66
2024-01-27T23:00:01.372Z,103403.47
2024-01-27T23:02:29.503Z,103408.06
2024-01-27T23:04:57.592Z,103400.16
2024-01-27T23:07:25.761Z,103400.81
2024-01-27T23:09:55.290Z,103412.00
2024-01-27T23:12:24.878Z,103413.88
2024-01-27T23:14:53.097Z,103414.59
2024-01-27T23:17:21.141Z,103411.88
2024-01-27T23:19:49.302Z,103419.41
2024-01-27T23:22:17.406Z,103417.13
2024-01-27T23:24:45.687Z,103416.28
2024-01-27T23:27:15.257Z,103421.13
2024-01-27T23:29:43.445Z,103416.88
2024-01-27T23:32:11.478Z,103420.94
2024-01-27T23:34:39.885Z,103414.34
2024-01-27T23:37:08.060Z,103418.50
2024-01-27T23:39:37.677Z,103417.66
2024-01-27T23:42:06.142Z,103412.72
2024-01-27T23:44:35.563Z,103414.53
2024-01-27T23:47:04.816Z,103417.97
2024-01-27T23:49:32.970Z,103419.13
2024-01-27T23:52:02.752Z,103416.72
2024-01-27T23:54:30.862Z,103413.22
2024-01-27T23:56:58.972Z,103413.50
2024-01-27T23:59:27.014Z,103416.22
